createdAt,value
2024-04-10T00:03:38.777Z,13.67
2024-04-10T00:13:00.009Z,13.54
2024-04-10T00:18:02.330Z,13.44
2024-04-10T00:23:06.718Z,13.39
2024-04-10T00:28:08.846Z,13.42
2024-04-10T00:33:11.193Z,13.44
2024-04-10T00:38:15.814Z,13.29
2024-04-10T00:43:21.553Z,13.19
2024-04-10T00:48:25.693Z,13.16
2024-04-10T00:53:31.490Z,13.09
2024-04-10T00:58:34.831Z,13.12
2024-04-10T01:03:39.886Z,13.08
2024-04-10T01:08:42.237Z,13.06
2024-04-10T01:13:44.398Z,13.03
2024-04-10T01:18:46.555Z,13.01
2024-04-10T01:23:48.718Z,13.07
2024-04-10T01:28:50.842Z,13.05
2024-04-10T01:33:53.176Z,13.05
2024-04-10T01:38:55.480Z,13.07
2024-04-10T01:43:58.405Z,13.06
2024-04-10T01:49:00.765Z,13.06
2024-04-10T01:54:03.168Z,13.11
2024-04-10T01:59:10.198Z,13.12
2024-04-10T02:04:12.361Z,13.12
2024-04-10T02:09:14.553Z,13.07
2024-04-10T02:14:16.786Z,13.09
2024-04-10T02:19:19.413Z,13.07
2024-04-10T02:24:22.649Z,13.08
2024-04-10T02:29:25.945Z,13.06
2024-04-10T02:34:28.303Z,12.98
2024-04-10T02:39:30.854Z,12.98
2024-04-10T02:44:33.151Z,12.93
2024-04-10T02:49:35.394Z,12.88
2024-04-10T02:54:37.527Z,12.84
2024-04-10T02:59:39.556Z,12.83
2024-04-10T03:04:42.395Z,12.83
2024-04-10T03:09:44.658Z,12.79
2024-04-10T03:14:47.273Z,12.82
2024-04-10T03:19:51.671Z,12.83
2024-04-10T03:24:54.143Z,12.82
2024-04-10T03:29:56.712Z,12.84
2024-04-10T03:34:59.203Z,12.91
2024-04-10T03:40:02.358Z,12.92
2024-04-10T03:45:06.064Z,12.82
2024-04-10T03:50:13.370Z,12.73
2024-04-10T03:55:16.997Z,12.69
2024-04-10T04:00:23.605Z,12.70
2024-04-10T04:05:26.500Z,12.71
2024-04-10T04:10:28.865Z,12.73
2024-04-10T04:15:31.287Z,12.77
2024-04-10T04:20:33.697Z,12.83
2024-04-10T04:25:36.519Z,12.84
2024-04-10T04:30:38.675Z,12.87
2024-04-10T04:35:41.519Z,12.82
2024-04-10T04:40:43.844Z,12.77
2024-04-10T04:45:46.259Z,12.75
2024-04-10T04:50:51.173Z,12.76
2024-04-10T04:56:00.870Z,12.78
2024-04-10T05:01:04.147Z,12.77
2024-04-10T05:12:47.168Z,12.82
2024-04-10T05:17:53.570Z,12.86
2024-04-10T05:22:56.114Z,12.86
2024-04-10T05:34:59.420Z,12.74
2024-04-10T05:40:07.944Z,12.69
2024-04-10T05:45:12.413Z,12.69
2024-04-10T05:50:14.777Z,12.63
2024-04-10T05:55:17.187Z,12.63
2024-04-10T06:00:19.629Z,12.62
2024-04-10T06:05:22.066Z,12.64
2024-04-10T06:10:24.949Z,12.68
2024-04-10T06:21:08.972Z,12.70
2024-04-10T06:26:11.379Z,12.66
2024-04-10T06:31:15.375Z,12.63
2024-04-10T06:36:17.807Z,12.63
2024-04-10T06:41:22.990Z,12.68
2024-04-10T06:46:26.337Z,12.64
2024-04-10T06:51:28.683Z,12.62
2024-04-10T06:56:31.120Z,12.60
2024-04-10T07:01:35.635Z,12.62
2024-04-10T07:06:40.981Z,12.72
2024-04-10T07:11:43.475Z,12.73
2024-04-10T07:16:46.238Z,12.71
2024-04-10T07:21:49.602Z,12.65
2024-04-10T07:26:51.839Z,12.69
2024-04-10T07:31:54.196Z,12.73
2024-04-10T07:37:07.272Z,12.85
2024-04-10T07:42:10.772Z,12.93
2024-04-10T07:47:13.700Z,12.97
2024-04-10T07:52:16.331Z,12.91
2024-04-10T07:57:19.582Z,12.90
2024-04-10T08:02:22.459Z,12.97
2024-04-10T08:07:25.783Z,13.04
2024-04-10T08:12:28.078Z,13.15
2024-04-10T08:17:33.235Z,13.17
2024-04-10T08:22:35.607Z,13.23
2024-04-10T08:27:38.784Z,13.23
2024-04-10T08:32:41.699Z,13.24
2024-04-10T08:37:44.522Z,13.23
2024-04-10T08:42:51.453Z,13.17
2024-04-10T08:47:54.768Z,13.19
2024-04-10T08:52:59.890Z,13.36
2024-04-10T08:58:04.705Z,13.49
2024-04-10T09:03:08.262Z,13.42
2024-04-10T09:08:15.012Z,13.35
2024-04-10T09:13:17.321Z,13.45
2024-04-10T09:18:23.785Z,13.41
2024-04-10T09:23:28.974Z,13.39
2024-04-10T09:29:13.802Z,13.49
2024-04-10T09:34:23.954Z,13.70
2024-04-10T09:39:30.073Z,13.81
2024-04-10T09:44:34.383Z,14.04
2024-04-10T09:49:51.099Z,14.26
2024-04-10T09:54:54.178Z,14.25
2024-04-10T09:59:58.535Z,14.31
2024-04-10T10:05:07.517Z,14.22
2024-04-10T10:10:11.652Z,14.15
2024-04-10T10:15:14.158Z,14.15
2024-04-10T10:20:26.024Z,14.24
2024-04-10T10:25:30.816Z,14.19
2024-04-10T10:30:46.500Z,14.31
2024-04-10T10:35:57.764Z,14.36
2024-04-10T10:41:17.249Z,14.30
2024-04-10T10:46:22.705Z,14.36
2024-04-10T10:51:25.915Z,14.40
2024-04-10T10:56:29.642Z,14.36
2024-04-10T11:01:31.992Z,14.36
2024-04-10T11:06:34.368Z,14.43
2024-04-10T11:11:48.722Z,14.50
2024-04-10T11:17:08.562Z,14.54
2024-04-10T11:22:22.187Z,14.63
2024-04-10T11:27:25.853Z,14.78
2024-04-10T11:32:31.114Z,14.93
2024-04-10T11:37:33.944Z,14.86
2024-04-10T11:42:36.136Z,14.92
2024-04-10T11:47:39.340Z,14.97
2024-04-10T11:52:48.070Z,15.11
2024-04-10T11:57:50.266Z,15.04
2024-04-10T12:03:05.364Z,14.97
2024-04-10T12:08:10.468Z,15.10
2024-04-10T12:13:22.169Z,15.13
2024-04-10T12:18:24.260Z,15.22
2024-04-10T12:28:48.896Z,15.05
2024-04-10T12:33:56.980Z,14.95
2024-04-10T12:38:59.991Z,14.94
2024-04-10T12:44:19.341Z,15.06
2024-04-10T12:49:45.768Z,15.13
2024-04-10T12:54:49.773Z,15.16
2024-04-10T12:59:56.056Z,15.16
2024-04-10T13:05:05.529Z,15.21
2024-04-10T13:10:12.210Z,15.21
2024-04-10T13:15:34.473Z,15.12
2024-04-10T13:20:47.800Z,15.04
2024-04-10T13:26:10.719Z,15.14
2024-04-10T13:31:14.772Z,15.27
2024-04-10T13:36:35.948Z,15.30
2024-04-10T13:41:40.863Z,15.27
2024-04-10T13:46:44.230Z,15.11
2024-04-10T13:51:51.835Z,15.03
2024-04-10T13:57:05.779Z,15.03
2024-04-10T14:02:27.641Z,15.03
2024-04-10T14:07:44.963Z,15.04
2024-04-10T14:12:47.510Z,15.03
2024-04-10T14:18:19.438Z,15.03
2024-04-10T14:23:28.097Z,15.00
2024-04-10T14:28:33.229Z,14.98
2024-04-10T14:33:39.786Z,15.00
2024-04-10T14:38:46.546Z,14.99
2024-04-10T14:44:02.974Z,15.03
2024-04-10T14:49:20.999Z,15.10
2024-04-10T14:54:31.361Z,15.04
2024-04-10T14:59:34.928Z,14.97
2024-04-10T15:04:38.028Z,14.93
2024-04-10T15:09:41.019Z,15.10
2024-04-10T15:14:44.108Z,15.27
2024-04-10T15:19:49.655Z,15.26
2024-04-10T15:24:52.450Z,15.23
2024-04-10T15:29:54.803Z,15.19
2024-04-10T15:35:00.016Z,15.19
2024-04-10T15:40:03.778Z,15.16
2024-04-10T15:45:08.546Z,15.27
2024-04-10T15:50:11.139Z,15.37
2024-04-10T15:55:16.667Z,15.35
2024-04-10T16:00:19.165Z,15.26
2024-04-10T16:05:29.819Z,15.15
2024-04-10T16:10:38.961Z,15.04
2024-04-10T16:15:44.477Z,14.97
2024-04-10T16:20:48.025Z,14.95
2024-04-10T16:25:50.531Z,14.95
2024-04-10T16:30:52.888Z,15.03
2024-04-10T16:36:05.649Z,15.19
2024-04-10T16:41:09.334Z,15.20
2024-04-10T16:46:14.478Z,15.19
2024-04-10T16:51:17.144Z,15.17
2024-04-10T16:56:21.245Z,15.04
2024-04-10T17:01:25.154Z,14.93
2024-04-10T17:06:28.076Z,14.82
2024-04-10T17:11:32.712Z,14.75
2024-04-10T17:16:38.820Z,14.67
2024-04-10T17:21:47.677Z,14.53
2024-04-10T17:26:50.212Z,14.48
2024-04-10T17:31:56.468Z,14.44
2024-04-10T17:36:58.924Z,14.40
2024-04-10T17:42:01.748Z,14.36
2024-04-10T17:47:11.659Z,14.31
2024-04-10T17:52:14.178Z,14.23
2024-04-10T17:57:18.561Z,14.14
2024-04-10T18:02:21.978Z,14.04
2024-04-10T18:07:24.372Z,13.94
2024-04-10T18:12:26.531Z,13.86
2024-04-10T18:17:28.915Z,13.79
2024-04-10T18:22:31.492Z,13.70
2024-04-10T18:27:34.304Z,13.64
2024-04-10T18:32:38.031Z,13.58
2024-04-10T18:37:40.817Z,13.51
2024-04-10T18:42:43.051Z,13.47
2024-04-10T18:47:47.929Z,13.43
2024-04-10T18:52:52.232Z,13.40
2024-04-10T18:57:54.281Z,13.33
2024-04-10T19:03:03.378Z,13.26
2024-04-10T19:08:06.186Z,13.21
2024-04-10T19:13:08.605Z,13.18
2024-04-10T19:18:12.361Z,13.12
2024-04-10T19:23:14.920Z,13.05
2024-04-10T19:28:17.407Z,12.96
2024-04-10T19:33:19.726Z,12.90
2024-04-10T19:38:21.976Z,12.85
2024-04-10T19:43:24.414Z,12.81
2024-04-10T19:48:28.436Z,12.74
2024-04-10T19:53:32.323Z,12.65
2024-04-10T19:58:36.203Z,12.57
2024-04-10T20:03:43.913Z,12.50
2024-04-10T20:08:47.227Z,12.46
2024-04-10T20:13:50.391Z,12.42
2024-04-10T20:18:53.195Z,12.39
2024-04-10T20:23:55.804Z,12.37
2024-04-10T20:28:58.098Z,12.37
2024-04-10T20:34:03.600Z,12.36
2024-04-10T20:39:08.203Z,12.29
2024-04-10T20:44:11.963Z,12.23
2024-04-10T20:49:14.602Z,12.19
2024-04-10T20:54:19.632Z,12.13
2024-04-10T20:59:22.041Z,12.11
2024-04-10T21:04:24.479Z,12.03
2024-04-10T21:09:45.024Z,12.02
2024-04-10T21:15:10.616Z,11.99
2024-04-10T21:20:32.299Z,11.97
2024-04-10T21:25:53.636Z,11.99
2024-04-10T21:31:14.266Z,11.91
2024-04-10T21:36:34.996Z,11.85
2024-04-10T21:41:57.131Z,11.83
2024-04-10T21:47:18.269Z,11.80
2024-04-10T21:52:39.549Z,11.78
2024-04-10T21:58:00.402Z,11.75
2024-04-10T22:03:24.344Z,11.74
2024-04-10T22:08:45.682Z,11.72
2024-04-10T22:13:48.560Z,11.68
2024-04-10T22:19:09.824Z,11.61
2024-04-10T22:24:12.299Z,11.57
2024-04-10T22:29:15.660Z,11.54
2024-04-10T22:34:17.850Z,11.52
2024-04-10T22:39:20.343Z,11.50
2024-04-10T22:44:22.591Z,11.44
2024-04-10T22:49:24.972Z,11.39
2024-04-10T22:54:29.678Z,11.35
2024-04-10T22:59:31.852Z,11.32
2024-04-10T23:04:34.169Z,11.31
2024-04-10T23:09:36.733Z,11.28
2024-04-10T23:14:39.472Z,11.23
2024-04-10T23:19:41.955Z,11.17
2024-04-10T23:24:45.948Z,11.11
2024-04-10T23:29:54.507Z,11.08
2024-04-10T23:34:57.041Z,11.06
2024-04-10T23:45:09.823Z,10.95
2024-04-10T23:50:11.995Z,10.88
2024-04-10T23:55:15.648Z,10.85
